CheckWX is a tool to help pilots better visualize weather data.  It is not intended as a substitute for an official pre-flight weather briefing.

16:14:22 UTC

KCCO METAR
Newnan Coweta County Airport
Atlanta, Georgia, USA
Current

19 mins ago

KCCO 261555Z AUTO 30004KT 10SM CLR 33/20 A3020 RMK AO2 T03260204
Observed
May-26 @ 15:55 UTC
Wind
  • 300° at 4 KTS
Visibility
10 SM
Flight Rules
VFR
Cloud Levels
  • Clear skies
Temperature
33°C / 91°F
Dewpoint
20°C / 68°F
Heat Index
35°C / 95°F
Humidity
46%
Altimeter
30.2" Hg
Pressure
1022.72 hPa
Previous

39 mins ago

KCCO 261535Z AUTO 31004KT 10SM CLR 32/20 A3020 RMK AO2 T03230204
Observed
May-26 @ 15:35 UTC
Wind
  • 310° at 4 KTS
Visibility
10 SM
Flight Rules
VFR
Cloud Levels
  • Clear skies
Temperature
32°C / 90°F
Dewpoint
20°C / 68°F
Heat Index
34°C / 94°F
Humidity
49%
Altimeter
30.2" Hg
Pressure
1022.72 hPa
Previous

59 mins ago

KCCO 261515Z AUTO 34005KT 10SM CLR 32/19 A3020 RMK AO2 T03190190
Observed
May-26 @ 15:15 UTC
Wind
  • 340° at 5 KTS
Visibility
10 SM
Flight Rules
VFR
Cloud Levels
  • Clear skies
Temperature
32°C / 90°F
Dewpoint
19°C / 66°F
Heat Index
34°C / 93°F
Humidity
46%
Altimeter
30.2" Hg
Pressure
1022.72 hPa